sensor_id;sensor_type;location;lat;lon;timestamp;temperature;humidity
9768;DHT22;4923;52.520;13.494;2023-09-18T00:00:17;18.50;99.90
9768;DHT22;4923;52.520;13.494;2023-09-18T00:03:04;18.50;99.90
9768;DHT22;4923;52.520;13.494;2023-09-18T00:05:51;18.40;99.90
9768;DHT22;4923;52.520;13.494;2023-09-18T00:08:40;18.40;99.90
9768;DHT22;4923;52.520;13.494;2023-09-18T00:11:27;18.40;99.90
9768;DHT22;4923;52.520;13.494;2023-09-18T00:14:13;18.40;99.90
9768;DHT22;4923;52.520;13.494;2023-09-18T00:17:00;18.40;99.90
9768;DHT22;4923;52.520;13.494;2023-09-18T00:19:47;18.40;99.90
9768;DHT22;4923;52.520;13.494;2023-09-18T00:22:34;18.30;99.90
9768;DHT22;4923;52.520;13.494;2023-09-18T00:25:22;18.30;99.90
9768;DHT22;4923;52.520;13.494;2023-09-18T00:28:09;18.30;99.90
9768;DHT22;4923;52.520;13.494;2023-09-18T00:30:56;18.30;99.90
9768;DHT22;4923;52.520;13.494;2023-09-18T00:33:43;18.20;99.90
9768;DHT22;4923;52.520;13.494;2023-09-18T00:36:30;18.20;99.90
9768;DHT22;4923;52.520;13.494;2023-09-18T00:39:17;18.20;99.90
9768;DHT22;4923;52.520;13.494;2023-09-18T00:42:05;18.20;99.90
9768;DHT22;4923;52.520;13.494;2023-09-18T00:44:52;18.20;99.90
9768;DHT22;4923;52.520;13.494;2023-09-18T00:47:39;18.20;99.90
9768;DHT22;4923;52.520;13.494;2023-09-18T00:50:26;18.20;99.90
9768;DHT22;4923;52.520;13.494;2023-09-18T00:53:15;18.10;99.90
9768;DHT22;4923;52.520;13.494;2023-09-18T00:56:04;18.00;99.90
9768;DHT22;4923;52.520;13.494;2023-09-18T00:58:52;18.00;99.90
9768;DHT22;4923;52.520;13.494;2023-09-18T01:01:40;18.00;99.90
9768;DHT22;4923;52.520;13.494;2023-09-18T01:04:29;17.90;99.90
9768;DHT22;4923;52.520;13.494;2023-09-18T01:07:18;17.90;99.90
9768;DHT22;4923;52.520;13.494;2023-09-18T01:10:06;17.90;99.90
9768;DHT22;4923;52.520;13.494;2023-09-18T01:12:58;17.90;99.90
9768;DHT22;4923;52.520;13.494;2023-09-18T01:15:54;17.80;99.90
9768;DHT22;4923;52.520;13.494;2023-09-18T01:18:48;17.70;99.90
9768;DHT22;4923;52.520;13.494;2023-09-18T01:21:35;17.70;99.90
9768;DHT22;4923;52.520;13.494;2023-09-18T01:24:23;17.70;99.90
9768;DHT22;4923;52.520;13.494;2023-09-18T01:27:11;17.70;99.90
9768;DHT22;4923;52.520;13.494;2023-09-18T01:29:59;17.70;99.90
9768;DHT22;4923;52.520;13.494;2023-09-18T01:32:46;17.70;99.90
9768;DHT22;4923;52.520;13.494;2023-09-18T01:35:34;17.60;99.90
9768;DHT22;4923;52.520;13.494;2023-09-18T01:38:22;17.60;99.90
9768;DHT22;4923;52.520;13.494;2023-09-18T01:41:10;17.60;99.90
9768;DHT22;4923;52.520;13.494;2023-09-18T01:43:57;17.60;99.90
9768;DHT22;4923;52.520;13.494;2023-09-18T01:46:44;17.60;99.90
9768;DHT22;4923;52.520;13.494;2023-09-18T01:49:33;17.50;99.90
9768;DHT22;4923;52.520;13.494;2023-09-18T01:52:20;17.50;99.90
9768;DHT22;4923;52.520;13.494;2023-09-18T01:55:08;17.50;99.90
9768;DHT22;4923;52.520;13.494;2023-09-18T01:57:56;17.50;99.90
9768;DHT22;4923;52.520;13.494;2023-09-18T02:00:43;17.50;99.90
9768;DHT22;4923;52.520;13.494;2023-09-18T02:03:30;17.50;99.90
9768;DHT22;4923;52.520;13.494;2023-09-18T02:06:16;17.40;99.90
9768;DHT22;4923;52.520;13.494;2023-09-18T02:09:03;17.40;99.90
9768;DHT22;4923;52.520;13.494;2023-09-18T02:11:50;17.30;99.90
9768;DHT22;4923;52.520;13.494;2023-09-18T02:14:39;17.30;99.90
9768;DHT22;4923;52.520;13.494;2023-09-18T02:17:25;17.20;99.90
9768;DHT22;4923;52.520;13.494;2023-09-18T02:20:12;17.20;99.90
9768;DHT22;4923;52.520;13.494;2023-09-18T02:22:59;17.20;99.90
9768;DHT22;4923;52.520;13.494;2023-09-18T02:25:46;17.20;99.90
9768;DHT22;4923;52.520;13.494;2023-09-18T02:28:33;17.20;99.90
9768;DHT22;4923;52.520;13.494;2023-09-18T02:31:21;17.20;99.90
9768;DHT22;4923;52.520;13.494;2023-09-18T02:34:08;17.20;99.90
9768;DHT22;4923;52.520;13.494;2023-09-18T02:36:55;17.10;99.90
9768;DHT22;4923;52.520;13.494;2023-09-18T02:39:42;17.10;99.90
9768;DHT22;4923;52.520;13.494;2023-09-18T02:42:29;17.10;99.90
9768;DHT22;4923;52.520;13.494;2023-09-18T02:45:16;17.10;99.90
9768;DHT22;4923;52.520;13.494;2023-09-18T02:48:04;17.10;99.90
9768;DHT22;4923;52.520;13.494;2023-09-18T02:50:51;17.10;99.90
9768;DHT22;4923;52.520;13.494;2023-09-18T02:53:38;17.00;99.90
9768;DHT22;4923;52.520;13.494;2023-09-18T02:56:25;17.00;99.90
9768;DHT22;4923;52.520;13.494;2023-09-18T02:59:12;17.00;99.90
9768;DHT22;4923;52.520;13.494;2023-09-18T03:01:59;17.00;99.90
9768;DHT22;4923;52.520;13.494;2023-09-18T03:04:47;17.00;99.90
9768;DHT22;4923;52.520;13.494;2023-09-18T03:07:34;16.90;99.90
9768;DHT22;4923;52.520;13.494;2023-09-18T03:10:21;16.90;99.90
9768;DHT22;4923;52.520;13.494;2023-09-18T03:13:08;16.90;99.90
9768;DHT22;4923;52.520;13.494;2023-09-18T03:15:56;16.90;99.90
9768;DHT22;4923;52.520;13.494;2023-09-18T03:18:42;16.90;99.90
9768;DHT22;4923;52.520;13.494;2023-09-18T03:21:31;16.90;99.90
9768;DHT22;4923;52.520;13.494;2023-09-18T03:24:19;16.90;99.90
9768;DHT22;4923;52.520;13.494;2023-09-18T03:27:05;16.90;99.90
9768;DHT22;4923;52.520;13.494;2023-09-18T03:29:52;16.90;99.90
9768;DHT22;4923;52.520;13.494;2023-09-18T03:32:39;16.90;99.90
9768;DHT22;4923;52.520;13.494;2023-09-18T03:35:28;16.80;99.90
9768;DHT22;4923;52.520;13.494;2023-09-18T03:38:17;16.80;99.90
9768;DHT22;4923;52.520;13.494;2023-09-18T03:41:04;16.80;99.90
9768;DHT22;4923;52.520;13.494;2023-09-18T03:43:50;16.70;99.90
9768;DHT22;4923;52.520;13.494;2023-09-18T03:46:37;16.70;99.90
9768;DHT22;4923;52.520;13.494;2023-09-18T03:49:24;16.70;99.90
9768;DHT22;4923;52.520;13.494;2023-09-18T03:52:11;16.70;99.90
9768;DHT22;4923;52.520;13.494;2023-09-18T03:54:59;16.70;99.90
9768;DHT22;4923;52.520;13.494;2023-09-18T03:57:46;16.70;99.90
9768;DHT22;4923;52.520;13.494;2023-09-18T04:00:34;16.70;99.90
9768;DHT22;4923;52.520;13.494;2023-09-18T04:03:21;16.70;99.90
9768;DHT22;4923;52.520;13.494;2023-09-18T04:06:08;16.70;99.90
9768;DHT22;4923;52.520;13.494;2023-09-18T04:08:55;16.70;99.90
9768;DHT22;4923;52.520;13.494;2023-09-18T04:11:43;16.60;99.90
9768;DHT22;4923;52.520;13.494;2023-09-18T04:14:30;16.60;99.90
9768;DHT22;4923;52.520;13.494;2023-09-18T04:17:17;16.60;99.90
9768;DHT22;4923;52.520;13.494;2023-09-18T04:20:04;16.60;99.90
9768;DHT22;4923;52.520;13.494;2023-09-18T04:23:19;16.50;99.90
9768;DHT22;4923;52.520;13.494;2023-09-18T04:26:07;16.50;99.90
9768;DHT22;4923;52.520;13.494;2023-09-18T04:28:55;16.50;99.90
9768;DHT22;4923;52.520;13.494;2023-09-18T04:31:42;16.50;99.90
9768;DHT22;4923;52.520;13.494;2023-09-18T04:34:28;16.50;99.90
9768;DHT22;4923;52.520;13.494;2023-09-18T04:37:15;16.50;99.90
9768;DHT22;4923;52.520;13.494;2023-09-18T04:40:03;16.50;99.90
9768;DHT22;4923;52.520;13.494;2023-09-18T04:42:50;16.50;99.90
9768;DHT22;4923;52.520;13.494;2023-09-18T04:45:38;16.50;99.90
9768;DHT22;4923;52.520;13.494;2023-09-18T04:48:25;16.50;99.90
9768;DHT22;4923;52.520;13.494;2023-09-18T04:51:12;16.50;99.90
9768;DHT22;4923;52.520;13.494;2023-09-18T04:53:59;16.60;99.90
9768;DHT22;4923;52.520;13.494;2023-09-18T04:56:46;16.60;99.90
9768;DHT22;4923;52.520;13.494;2023-09-18T04:59:32;16.60;99.90
9768;DHT22;4923;52.520;13.494;2023-09-18T05:02:21;16.70;99.90
9768;DHT22;4923;52.520;13.494;2023-09-18T05:05:10;16.70;99.90
9768;DHT22;4923;52.520;13.494;2023-09-18T05:07:57;16.70;99.90
9768;DHT22;4923;52.520;13.494;2023-09-18T05:10:44;16.70;99.90
9768;DHT22;4923;52.520;13.494;2023-09-18T05:13:31;16.80;99.90
9768;DHT22;4923;52.520;13.494;2023-09-18T05:16:18;16.80;99.90
9768;DHT22;4923;52.520;13.494;2023-09-18T05:19:06;16.90;99.90
9768;DHT22;4923;52.520;13.494;2023-09-18T05:21:53;16.90;99.90
9768;DHT22;4923;52.520;13.494;2023-09-18T05:24:40;17.00;99.90
9768;DHT22;4923;52.520;13.494;2023-09-18T05:27:27;17.10;99.90
9768;DHT22;4923;52.520;13.494;2023-09-18T05:30:19;17.10;99.90
9768;DHT22;4923;52.520;13.494;2023-09-18T05:33:07;17.20;99.90
9768;DHT22;4923;52.520;13.494;2023-09-18T05:35:56;17.30;99.90
9768;DHT22;4923;52.520;13.494;2023-09-18T05:38:43;17.40;99.90
9768;DHT22;4923;52.520;13.494;2023-09-18T05:41:30;17.50;99.90
9768;DHT22;4923;52.520;13.494;2023-09-18T05:44:17;17.50;99.90
9768;DHT22;4923;52.520;13.494;2023-09-18T05:47:04;17.60;99.90
9768;DHT22;4923;52.520;13.494;2023-09-18T05:49:51;17.80;99.90
9768;DHT22;4923;52.520;13.494;2023-09-18T05:52:39;17.80;99.90
9768;DHT22;4923;52.520;13.494;2023-09-18T05:55:26;18.00;99.90
9768;DHT22;4923;52.520;13.494;2023-09-18T05:58:13;18.10;99.90
9768;DHT22;4923;52.520;13.494;2023-09-18T06:01:00;18.20;99.90
9768;DHT22;4923;52.520;13.494;2023-09-18T06:03:47;18.30;99.90
9768;DHT22;4923;52.520;13.494;2023-09-18T06:06:34;18.50;99.90
9768;DHT22;4923;52.520;13.494;2023-09-18T06:09:22;18.60;99.90
9768;DHT22;4923;52.520;13.494;2023-09-18T06:12:09;18.70;99.90
9768;DHT22;4923;52.520;13.494;2023-09-18T06:14:56;18.80;99.90
9768;DHT22;4923;52.520;13.494;2023-09-18T06:17:44;18.90;99.90
9768;DHT22;4923;52.520;13.494;2023-09-18T06:20:31;19.00;99.90
9768;DHT22;4923;52.520;13.494;2023-09-18T06:23:17;19.20;99.90
9768;DHT22;4923;52.520;13.494;2023-09-18T06:26:06;19.30;99.90
9768;DHT22;4923;52.520;13.494;2023-09-18T06:28:52;19.40;99.90
9768;DHT22;4923;52.520;13.494;2023-09-18T06:31:40;19.40;99.90
9768;DHT22;4923;52.520;13.494;2023-09-18T06:34:27;19.40;99.90
9768;DHT22;4923;52.520;13.494;2023-09-18T06:37:14;19.50;99.90
9768;DHT22;4923;52.520;13.494;2023-09-18T06:40:01;19.50;99.90
9768;DHT22;4923;52.520;13.494;2023-09-18T06:42:51;19.60;99.90
9768;DHT22;4923;52.520;13.494;2023-09-18T06:45:37;19.70;99.90
9768;DHT22;4923;52.520;13.494;2023-09-18T06:48:24;19.80;99.90
9768;DHT22;4923;52.520;13.494;2023-09-18T06:51:11;19.90;99.90
9768;DHT22;4923;52.520;13.494;2023-09-18T06:53:58;20.00;99.90
9768;DHT22;4923;52.520;13.494;2023-09-18T06:56:48;20.10;99.90
9768;DHT22;4923;52.520;13.494;2023-09-18T06:59:36;20.10;99.90
9768;DHT22;4923;52.520;13.494;2023-09-18T07:02:23;20.20;99.90
9768;DHT22;4923;52.520;13.494;2023-09-18T07:05:10;20.40;99.90
9768;DHT22;4923;52.520;13.494;2023-09-18T07:07:57;20.50;99.90
9768;DHT22;4923;52.520;13.494;2023-09-18T07:10:43;20.60;99.90
9768;DHT22;4923;52.520;13.494;2023-09-18T07:13:30;20.70;99.90
9768;DHT22;4923;52.520;13.494;2023-09-18T07:16:18;20.80;99.90
9768;DHT22;4923;52.520;13.494;2023-09-18T07:19:05;21.10;99.90
9768;DHT22;4923;52.520;13.494;2023-09-18T07:21:52;21.20;99.90
9768;DHT22;4923;52.520;13.494;2023-09-18T07:24:39;21.30;99.90
9768;DHT22;4923;52.520;13.494;2023-09-18T07:27:28;21.40;99.90
9768;DHT22;4923;52.520;13.494;2023-09-18T07:30:15;21.40;99.90
9768;DHT22;4923;52.520;13.494;2023-09-18T07:33:04;21.50;99.90
9768;DHT22;4923;52.520;13.494;2023-09-18T07:35:51;21.60;99.90
9768;DHT22;4923;52.520;13.494;2023-09-18T07:38:38;21.60;99.90
9768;DHT22;4923;52.520;13.494;2023-09-18T07:41:26;21.70;99.90
9768;DHT22;4923;52.520;13.494;2023-09-18T07:44:13;21.90;99.90
9768;DHT22;4923;52.520;13.494;2023-09-18T07:46:59;22.00;99.90
9768;DHT22;4923;52.520;13.494;2023-09-18T07:49:48;22.20;99.90
9768;DHT22;4923;52.520;13.494;2023-09-18T07:52:36;22.30;99.90
9768;DHT22;4923;52.520;13.494;2023-09-18T07:55:22;22.40;99.90
9768;DHT22;4923;52.520;13.494;2023-09-18T07:58:09;22.40;99.90
9768;DHT22;4923;52.520;13.494;2023-09-18T08:00:57;22.50;99.90
9768;DHT22;4923;52.520;13.494;2023-09-18T08:03:44;22.60;99.90
9768;DHT22;4923;52.520;13.494;2023-09-18T08:06:33;22.80;99.90
9768;DHT22;4923;52.520;13.494;2023-09-18T08:09:20;22.90;99.90
9768;DHT22;4923;52.520;13.494;2023-09-18T08:12:08;23.00;99.90
9768;DHT22;4923;52.520;13.494;2023-09-18T08:14:55;23.10;99.90
9768;DHT22;4923;52.520;13.494;2023-09-18T08:17:44;23.20;99.90
9768;DHT22;4923;52.520;13.494;2023-09-18T08:20:32;23.30;99.90
9768;DHT22;4923;52.520;13.494;2023-09-18T08:23:21;23.40;99.90
9768;DHT22;4923;52.520;13.494;2023-09-18T08:26:08;23.60;99.90
9768;DHT22;4923;52.520;13.494;2023-09-18T08:28:55;23.60;99.90
9768;DHT22;4923;52.520;13.494;2023-09-18T08:31:42;23.70;99.90
9768;DHT22;4923;52.520;13.494;2023-09-18T08:34:29;23.90;99.90
9768;DHT22;4923;52.520;13.494;2023-09-18T08:37:16;24.00;99.90
9768;DHT22;4923;52.520;13.494;2023-09-18T08:40:05;24.10;99.90
9768;DHT22;4923;52.520;13.494;2023-09-18T08:42:56;24.40;99.90
9768;DHT22;4923;52.520;13.494;2023-09-18T08:45:51;24.50;99.90
9768;DHT22;4923;52.520;13.494;2023-09-18T08:48:39;24.70;99.90
9768;DHT22;4923;52.520;13.494;2023-09-18T08:51:27;24.80;99.90
9768;DHT22;4923;52.520;13.494;2023-09-18T08:54:15;25.10;99.90
9768;DHT22;4923;52.520;13.494;2023-09-18T08:57:04;25.20;99.90
9768;DHT22;4923;52.520;13.494;2023-09-18T08:59:54;25.50;99.90
9768;DHT22;4923;52.520;13.494;2023-09-18T09:02:43;25.50;99.90
9768;DHT22;4923;52.520;13.494;2023-09-18T09:05:30;25.50;99.90
9768;DHT22;4923;52.520;13.494;2023-09-18T09:08:17;25.50;99.90
9768;DHT22;4923;52.520;13.494;2023-09-18T09:11:04;25.70;99.90
9768;DHT22;4923;52.520;13.494;2023-09-18T09:14:08;25.80;99.90
9768;DHT22;4923;52.520;13.494;2023-09-18T09:16:57;25.80;99.90
9768;DHT22;4923;52.520;13.494;2023-09-18T09:19:44;26.00;99.90
9768;DHT22;4923;52.520;13.494;2023-09-18T09:22:31;26.10;99.90
9768;DHT22;4923;52.520;13.494;2023-09-18T09:25:24;26.20;99.90
9768;DHT22;4923;52.520;13.494;2023-09-18T09:28:12;26.50;99.90
9768;DHT22;4923;52.520;13.494;2023-09-18T09:31:03;26.80;99.90
9768;DHT22;4923;52.520;13.494;2023-09-18T09:33:51;26.90;99.90
9768;DHT22;4923;52.520;13.494;2023-09-18T09:36:51;26.80;99.90
9768;DHT22;4923;52.520;13.494;2023-09-18T09:39:49;27.00;99.90
9768;DHT22;4923;52.520;13.494;2023-09-18T09:42:38;27.10;99.90
9768;DHT22;4923;52.520;13.494;2023-09-18T09:45:27;27.10;99.90
9768;DHT22;4923;52.520;13.494;2023-09-18T09:48:16;27.00;99.90
9768;DHT22;4923;52.520;13.494;2023-09-18T09:51:03;27.20;99.90
9768;DHT22;4923;52.520;13.494;2023-09-18T09:53:50;27.20;99.90
9768;DHT22;4923;52.520;13.494;2023-09-18T09:56:43;27.30;99.90
9768;DHT22;4923;52.520;13.494;2023-09-18T09:59:30;27.30;99.90
9768;DHT22;4923;52.520;13.494;2023-09-18T10:02:19;27.50;99.90
9768;DHT22;4923;52.520;13.494;2023-09-18T10:05:09;27.60;99.90
9768;DHT22;4923;52.520;13.494;2023-09-18T10:07:59;27.80;99.90
9768;DHT22;4923;52.520;13.494;2023-09-18T10:10:47;27.90;99.90
9768;DHT22;4923;52.520;13.494;2023-09-18T10:13:40;27.90;99.90
9768;DHT22;4923;52.520;13.494;2023-09-18T10:16:30;28.00;99.90
9768;DHT22;4923;52.520;13.494;2023-09-18T10:19:24;28.00;99.90
9768;DHT22;4923;52.520;13.494;2023-09-18T10:22:21;28.10;99.90
9768;DHT22;4923;52.520;13.494;2023-09-18T10:25:22;28.10;99.90
9768;DHT22;4923;52.520;13.494;2023-09-18T10:28:10;28.00;99.90
9768;DHT22;4923;52.520;13.494;2023-09-18T10:30:58;27.90;99.90
9768;DHT22;4923;52.520;13.494;2023-09-18T10:33:49;28.00;99.90
9768;DHT22;4923;52.520;13.494;2023-09-18T10:36:37;28.00;99.90
9768;DHT22;4923;52.520;13.494;2023-09-18T10:39:26;28.10;99.90
9768;DHT22;4923;52.520;13.494;2023-09-18T10:42:18;28.20;99.90
9768;DHT22;4923;52.520;13.494;2023-09-18T10:45:10;28.20;99.90
9768;DHT22;4923;52.520;13.494;2023-09-18T10:47:57;28.30;99.90
9768;DHT22;4923;52.520;13.494;2023-09-18T10:50:44;28.20;99.90
9768;DHT22;4923;52.520;13.494;2023-09-18T10:53:32;28.20;99.90
9768;DHT22;4923;52.520;13.494;2023-09-18T10:56:19;28.10;99.90
9768;DHT22;4923;52.520;13.494;2023-09-18T10:59:08;27.90;99.90
9768;DHT22;4923;52.520;13.494;2023-09-18T11:01:55;27.70;99.90
9768;DHT22;4923;52.520;13.494;2023-09-18T11:04:42;27.70;99.90
9768;DHT22;4923;52.520;13.494;2023-09-18T11:07:30;27.60;99.90
9768;DHT22;4923;52.520;13.494;2023-09-18T11:10:26;27.70;99.90
9768;DHT22;4923;52.520;13.494;2023-09-18T11:13:28;27.70;99.90
9768;DHT22;4923;52.520;13.494;2023-09-18T11:16:19;27.70;99.90
9768;DHT22;4923;52.520;13.494;2023-09-18T11:19:19;27.60;99.90
9768;DHT22;4923;52.520;13.494;2023-09-18T11:22:07;27.50;99.90
9768;DHT22;4923;52.520;13.494;2023-09-18T11:25:28;27.60;99.90
9768;DHT22;4923;52.520;13.494;2023-09-18T11:28:16;27.70;99.90
9768;DHT22;4923;52.520;13.494;2023-09-18T11:31:09;27.80;99.90
9768;DHT22;4923;52.520;13.494;2023-09-18T11:33:58;27.80;99.90
9768;DHT22;4923;52.520;13.494;2023-09-18T11:36:45;27.70;99.90
9768;DHT22;4923;52.520;13.494;2023-09-18T11:39:33;27.70;99.90
9768;DHT22;4923;52.520;13.494;2023-09-18T11:42:22;27.40;99.90
9768;DHT22;4923;52.520;13.494;2023-09-18T11:45:16;27.30;99.90
9768;DHT22;4923;52.520;13.494;2023-09-18T11:48:05;27.40;99.90
9768;DHT22;4923;52.520;13.494;2023-09-18T11:50:55;27.50;99.90
9768;DHT22;4923;52.520;13.494;2023-09-18T11:53:43;27.40;99.90
9768;DHT22;4923;52.520;13.494;2023-09-18T11:56:30;27.20;99.90
9768;DHT22;4923;52.520;13.494;2023-09-18T11:59:17;27.10;99.90
9768;DHT22;4923;52.520;13.494;2023-09-18T12:02:05;27.00;99.90
9768;DHT22;4923;52.520;13.494;2023-09-18T12:04:54;27.00;99.90
9768;DHT22;4923;52.520;13.494;2023-09-18T12:07:43;26.90;99.90
9768;DHT22;4923;52.520;13.494;2023-09-18T12:10:31;26.90;99.90
9768;DHT22;4923;52.520;13.494;2023-09-18T12:13:18;26.90;99.90
9768;DHT22;4923;52.520;13.494;2023-09-18T12:16:05;26.80;99.90
9768;DHT22;4923;52.520;13.494;2023-09-18T12:18:52;27.10;99.90
9768;DHT22;4923;52.520;13.494;2023-09-18T12:21:40;27.30;99.90
9768;DHT22;4923;52.520;13.494;2023-09-18T12:24:29;27.40;99.90
9768;DHT22;4923;52.520;13.494;2023-09-18T12:27:15;27.70;99.90
9768;DHT22;4923;52.520;13.494;2023-09-18T12:30:03;27.80;99.90
9768;DHT22;4923;52.520;13.494;2023-09-18T12:32:51;28.10;99.90
9768;DHT22;4923;52.520;13.494;2023-09-18T12:35:40;28.20;99.90
9768;DHT22;4923;52.520;13.494;2023-09-18T12:38:28;28.50;99.90
9768;DHT22;4923;52.520;13.494;2023-09-18T12:41:17;28.70;99.90
9768;DHT22;4923;52.520;13.494;2023-09-18T12:44:05;28.80;99.90
9768;DHT22;4923;52.520;13.494;2023-09-18T12:46:52;28.70;99.90
9768;DHT22;4923;52.520;13.494;2023-09-18T12:49:39;28.50;99.90
9768;DHT22;4923;52.520;13.494;2023-09-18T12:52:26;28.40;99.90
9768;DHT22;4923;52.520;13.494;2023-09-18T12:55:21;28.30;99.90
9768;DHT22;4923;52.520;13.494;2023-09-18T12:58:12;27.90;99.90
9768;DHT22;4923;52.520;13.494;2023-09-18T13:01:04;27.60;99.90
9768;DHT22;4923;52.520;13.494;2023-09-18T13:03:54;27.50;99.90
9768;DHT22;4923;52.520;13.494;2023-09-18T13:06:41;27.40;99.90
9768;DHT22;4923;52.520;13.494;2023-09-18T13:09:28;27.30;99.90
9768;DHT22;4923;52.520;13.494;2023-09-18T13:12:15;27.10;99.90
9768;DHT22;4923;52.520;13.494;2023-09-18T13:15:04;26.80;99.90
9768;DHT22;4923;52.520;13.494;2023-09-18T13:17:55;26.70;99.90
9768;DHT22;4923;52.520;13.494;2023-09-18T13:20:43;26.50;99.90
9768;DHT22;4923;52.520;13.494;2023-09-18T13:23:31;26.40;99.90
9768;DHT22;4923;52.520;13.494;2023-09-18T13:26:18;26.40;99.90
9768;DHT22;4923;52.520;13.494;2023-09-18T13:29:05;26.30;99.90
9768;DHT22;4923;52.520;13.494;2023-09-18T13:31:53;26.30;99.90
9768;DHT22;4923;52.520;13.494;2023-09-18T13:34:40;26.30;99.90
9768;DHT22;4923;52.520;13.494;2023-09-18T13:37:27;26.30;99.90
9768;DHT22;4923;52.520;13.494;2023-09-18T13:40:15;26.30;99.90
9768;DHT22;4923;52.520;13.494;2023-09-18T13:43:02;26.20;99.90
9768;DHT22;4923;52.520;13.494;2023-09-18T13:45:50;26.10;99.90
9768;DHT22;4923;52.520;13.494;2023-09-18T13:48:39;26.00;99.90
9768;DHT22;4923;52.520;13.494;2023-09-18T13:51:26;25.80;99.90
9768;DHT22;4923;52.520;13.494;2023-09-18T13:54:13;25.60;99.90
9768;DHT22;4923;52.520;13.494;2023-09-18T13:57:00;25.50;99.90
9768;DHT22;4923;52.520;13.494;2023-09-18T13:59:51;25.30;99.90
9768;DHT22;4923;52.520;13.494;2023-09-18T14:02:38;25.20;99.90
9768;DHT22;4923;52.520;13.494;2023-09-18T14:05:26;25.30;99.90
9768;DHT22;4923;52.520;13.494;2023-09-18T14:08:15;25.40;99.90
9768;DHT22;4923;52.520;13.494;2023-09-18T14:11:03;25.50;99.90
9768;DHT22;4923;52.520;13.494;2023-09-18T14:13:51;25.60;99.90
9768;DHT22;4923;52.520;13.494;2023-09-18T14:16:38;25.50;99.90
9768;DHT22;4923;52.520;13.494;2023-09-18T14:19:25;25.50;99.90
9768;DHT22;4923;52.520;13.494;2023-09-18T14:22:13;25.50;99.90
9768;DHT22;4923;52.520;13.494;2023-09-18T14:25:01;25.50;99.90
9768;DHT22;4923;52.520;13.494;2023-09-18T14:27:50;25.60;99.90
9768;DHT22;4923;52.520;13.494;2023-09-18T14:30:37;25.60;99.90
9768;DHT22;4923;52.520;13.494;2023-09-18T14:33:24;25.50;99.90
9768;DHT22;4923;52.520;13.494;2023-09-18T14:36:11;25.30;99.90
9768;DHT22;4923;52.520;13.494;2023-09-18T14:38:59;25.30;99.90
9768;DHT22;4923;52.520;13.494;2023-09-18T14:41:46;25.20;99.90
9768;DHT22;4923;52.520;13.494;2023-09-18T14:44:33;25.10;99.90
9768;DHT22;4923;52.520;13.494;2023-09-18T14:47:20;25.10;99.90
9768;DHT22;4923;52.520;13.494;2023-09-18T14:50:07;25.00;99.90
9768;DHT22;4923;52.520;13.494;2023-09-18T14:52:54;24.90;99.90
9768;DHT22;4923;52.520;13.494;2023-09-18T14:55:42;24.90;99.90
9768;DHT22;4923;52.520;13.494;2023-09-18T14:58:29;24.90;99.90
9768;DHT22;4923;52.520;13.494;2023-09-18T15:01:16;24.80;99.90
9768;DHT22;4923;52.520;13.494;2023-09-18T15:04:03;24.90;99.90
9768;DHT22;4923;52.520;13.494;2023-09-18T15:06:50;24.80;99.90
9768;DHT22;4923;52.520;13.494;2023-09-18T15:09:37;24.80;99.90
9768;DHT22;4923;52.520;13.494;2023-09-18T15:12:26;24.80;99.90
9768;DHT22;4923;52.520;13.494;2023-09-18T15:15:13;24.80;99.90
9768;DHT22;4923;52.520;13.494;2023-09-18T15:18:00;24.90;99.90
9768;DHT22;4923;52.520;13.494;2023-09-18T15:20:47;24.90;99.90
9768;DHT22;4923;52.520;13.494;2023-09-18T15:23:39;25.00;99.90
9768;DHT22;4923;52.520;13.494;2023-09-18T15:26:26;25.10;99.90
9768;DHT22;4923;52.520;13.494;2023-09-18T15:29:15;25.10;99.90
9768;DHT22;4923;52.520;13.494;2023-09-18T15:32:02;25.10;99.90
9768;DHT22;4923;52.520;13.494;2023-09-18T15:34:49;25.10;99.90
9768;DHT22;4923;52.520;13.494;2023-09-18T15:37:36;25.00;99.90
9768;DHT22;4923;52.520;13.494;2023-09-18T15:40:23;24.90;99.90
9768;DHT22;4923;52.520;13.494;2023-09-18T15:43:10;24.90;99.90
9768;DHT22;4923;52.520;13.494;2023-09-18T15:45:58;24.80;99.90
9768;DHT22;4923;52.520;13.494;2023-09-18T15:48:45;24.80;99.90
9768;DHT22;4923;52.520;13.494;2023-09-18T15:51:32;24.80;99.90
9768;DHT22;4923;52.520;13.494;2023-09-18T15:54:19;24.70;99.90
9768;DHT22;4923;52.520;13.494;2023-09-18T15:57:06;24.70;99.90
9768;DHT22;4923;52.520;13.494;2023-09-18T15:59:53;24.60;99.90
9768;DHT22;4923;52.520;13.494;2023-09-18T16:02:41;24.50;99.90
9768;DHT22;4923;52.520;13.494;2023-09-18T16:05:29;24.40;99.90
9768;DHT22;4923;52.520;13.494;2023-09-18T16:08:16;24.30;99.90
9768;DHT22;4923;52.520;13.494;2023-09-18T16:11:03;24.20;99.90
9768;DHT22;4923;52.520;13.494;2023-09-18T16:13:49;24.10;99.90
9768;DHT22;4923;52.520;13.494;2023-09-18T16:16:38;24.00;99.90
9768;DHT22;4923;52.520;13.494;2023-09-18T16:19:26;24.00;99.90
9768;DHT22;4923;52.520;13.494;2023-09-18T16:22:14;23.90;99.90
9768;DHT22;4923;52.520;13.494;2023-09-18T16:25:01;23.80;99.90
9768;DHT22;4923;52.520;13.494;2023-09-18T16:27:48;23.70;99.90
9768;DHT22;4923;52.520;13.494;2023-09-18T16:30:36;23.60;99.90
9768;DHT22;4923;52.520;13.494;2023-09-18T16:33:23;23.50;99.90
9768;DHT22;4923;52.520;13.494;2023-09-18T16:36:12;23.30;99.90
9768;DHT22;4923;52.520;13.494;2023-09-18T16:38:58;23.10;99.90
9768;DHT22;4923;52.520;13.494;2023-09-18T16:41:45;23.00;99.90
9768;DHT22;4923;52.520;13.494;2023-09-18T16:44:32;22.90;99.90
9768;DHT22;4923;52.520;13.494;2023-09-18T16:47:19;22.70;99.90
9768;DHT22;4923;52.520;13.494;2023-09-18T16:50:07;22.60;99.90
9768;DHT22;4923;52.520;13.494;2023-09-18T16:52:55;22.50;99.90
9768;DHT22;4923;52.520;13.494;2023-09-18T16:55:43;22.40;99.90
9768;DHT22;4923;52.520;13.494;2023-09-18T16:58:30;22.30;99.90
9768;DHT22;4923;52.520;13.494;2023-09-18T17:01:17;22.20;99.90
9768;DHT22;4923;52.520;13.494;2023-09-18T17:04:04;22.10;99.90
9768;DHT22;4923;52.520;13.494;2023-09-18T17:06:51;22.10;99.90
9768;DHT22;4923;52.520;13.494;2023-09-18T17:09:39;22.00;99.90
9768;DHT22;4923;52.520;13.494;2023-09-18T17:12:26;22.00;99.90
9768;DHT22;4923;52.520;13.494;2023-09-18T17:15:13;22.00;99.90
9768;DHT22;4923;52.520;13.494;2023-09-18T17:18:01;22.00;99.90
9768;DHT22;4923;52.520;13.494;2023-09-18T17:20:49;21.90;99.90
9768;DHT22;4923;52.520;13.494;2023-09-18T17:23:36;21.80;99.90
9768;DHT22;4923;52.520;13.494;2023-09-18T17:26:24;21.70;99.90
9768;DHT22;4923;52.520;13.494;2023-09-18T17:29:12;21.60;99.90
9768;DHT22;4923;52.520;13.494;2023-09-18T17:31:59;21.50;99.90
9768;DHT22;4923;52.520;13.494;2023-09-18T17:34:46;21.40;99.90
9768;DHT22;4923;52.520;13.494;2023-09-18T17:37:33;21.30;99.90
9768;DHT22;4923;52.520;13.494;2023-09-18T17:40:20;21.30;99.90
9768;DHT22;4923;52.520;13.494;2023-09-18T17:43:08;21.10;99.90
9768;DHT22;4923;52.520;13.494;2023-09-18T17:45:55;21.10;99.90
9768;DHT22;4923;52.520;13.494;2023-09-18T17:48:42;21.00;99.90
9768;DHT22;4923;52.520;13.494;2023-09-18T17:51:28;21.00;99.90
9768;DHT22;4923;52.520;13.494;2023-09-18T17:54:19;20.90;99.90
9768;DHT22;4923;52.520;13.494;2023-09-18T17:57:06;20.80;99.90